Time;durP1;ratioP1;P1;durP2;ratioP2;P2;SDS_P1;SDS_P2;PMS_P1;PMS_P2;Temp;Humidity;BMP_temperature;BMP_pressure;BME280_temperature;BME280_humidity;BME280_pressure;Samples;Min_cycle;Max_cycle;Signal;HPM_P1;HPM_P2
2022/06/06 00:00:33;;;;;;;11.38;9.10;;;;;;;;;;5094260;28;20036;-81
2022/06/06 00:02:59;;;;;;;12.30;9.32;;;;;;;;;;5092646;28;20044;-81
2022/06/06 00:05:25;;;;;;;11.73;9.10;;;;;;;;;;5092601;28;20044;-81
2022/06/06 00:07:53;;;;;;;12.38;9.15;;;;;;;;;;5093651;28;20031;-81
2022/06/06 00:10:19;;;;;;;13.40;9.90;;;;;;;;;;5076036;28;20047;-81
2022/06/06 00:12:45;;;;;;;13.73;8.68;;;;;;;;;;5092307;28;20036;-81
2022/06/06 00:15:14;;;;;;;11.95;8.93;;;;;;;;;;5093859;28;20402;-81
2022/06/06 00:17:40;;;;;;;13.52;9.25;;;;;;;;;;5075365;28;20502;-80
2022/06/06 00:20:06;;;;;;;12.63;10.15;;;;;;;;;;5093832;28;20036;-81
2022/06/06 00:22:32;;;;;;;11.25;9.52;;;;;;;;;;5092211;28;20036;-82
2022/06/06 00:24:58;;;;;;;15.02;10.05;;;;;;;;;;5092200;28;20042;-82
2022/06/06 00:27:25;;;;;;;13.13;9.55;;;;;;;;;;5093408;28;20554;-81
2022/06/06 00:29:53;;;;;;;13.40;10.45;;;;;;;;;;5093822;28;20050;-82
2022/06/06 00:35:05;;;;;;;12.68;9.52;;;;;;;;;;5093360;28;20487;-82
2022/06/06 00:37:32;;;;;;;13.95;11.00;;;;;;;;;;5092291;28;20149;-82
2022/06/06 00:40:01;;;;;;;12.23;10.75;;;;;;;;;;5092089;28;20036;-82
2022/06/06 00:42:29;;;;;;;14.45;10.25;;;;;;;;;;5093151;28;20478;-82
2022/06/06 00:45:13;;;;;;;12.45;10.13;;;;;;;;;;5091022;28;20099;-82
2022/06/06 00:47:40;;;;;;;11.32;8.77;;;;;;;;;;5092996;28;20036;-82
2022/06/06 00:50:10;;;;;;;12.02;9.13;;;;;;;;;;5092223;28;20068;-82
2022/06/06 00:52:38;;;;;;;10.30;7.53;;;;;;;;;;5092175;28;20043;-82
2022/06/06 00:55:07;;;;;;;10.23;7.85;;;;;;;;;;5092087;28;20387;-82
2022/06/06 00:57:34;;;;;;;10.55;8.63;;;;;;;;;;5075052;28;20081;-82
2022/06/06 01:00:02;;;;;;;10.50;7.75;;;;;;;;;;5091877;28;20120;-81
2022/06/06 01:02:28;;;;;;;9.35;7.38;;;;;;;;;;5091721;28;20051;-81
2022/06/06 01:04:54;;;;;;;9.93;7.47;;;;;;;;;;5093165;28;20040;-81
2022/06/06 01:07:20;;;;;;;9.35;7.20;;;;;;;;;;5091455;28;20039;-82
2022/06/06 01:09:47;;;;;;;11.30;7.30;;;;;;;;;;5093151;28;20080;-82
2022/06/06 01:12:15;;;;;;;10.30;6.53;;;;;;;;;;5092803;28;20484;-81
2022/06/06 01:14:47;;;;;;;8.48;6.38;;;;;;;;;;5091731;28;20039;-81
2022/06/06 01:17:19;;;;;;;9.77;6.80;;;;;;;;;;5091458;28;20048;-81
2022/06/06 01:19:59;;;;;;;12.13;7.28;;;;;;;;;;5091916;28;20487;-82
2022/06/06 01:22:44;;;;;;;9.68;7.25;;;;;;;;;;5091481;28;20426;-82
2022/06/06 01:25:14;;;;;;;9.38;7.63;;;;;;;;;;5091429;28;20047;-82
2022/06/06 01:27:46;;;;;;;10.07;7.57;;;;;;;;;;5091376;28;20048;-81
2022/06/06 01:30:15;;;;;;;9.63;7.30;;;;;;;;;;5091884;28;20059;-81
2022/06/06 01:32:43;;;;;;;11.07;6.80;;;;;;;;;;5091549;28;20139;-81
2022/06/06 01:35:09;;;;;;;11.90;7.30;;;;;;;;;;5091331;28;20046;-81
2022/06/06 01:37:37;;;;;;;9.13;6.38;;;;;;;;;;5091280;28;20040;-82
2022/06/06 01:40:05;;;;;;;8.98;5.90;;;;;;;;;;5074852;28;20044;-82
2022/06/06 01:42:39;;;;;;;9.85;5.97;;;;;;;;;;5091168;28;20042;-82
2022/06/06 01:45:08;;;;;;;7.45;5.53;;;;;;;;;;5091236;28;20040;-81
2022/06/06 01:47:43;;;;;;;7.88;6.00;;;;;;;;;;5091058;28;20123;-81
2022/06/06 01:50:09;;;;;;;9.30;6.35;;;;;;;;;;5074476;28;20119;-82
2022/06/06 01:52:54;;;;;;;8.25;5.20;;;;;;;;;;5091047;28;20089;-82
2022/06/06 01:55:21;;;;;;;6.97;4.90;;;;;;;;;;5092872;28;20051;-82
2022/06/06 01:57:48;;;;;;;8.18;5.07;;;;;;;;;;5096198;28;20036;-82
2022/06/06 02:00:14;;;;;;;7.10;4.80;;;;;;;;;;5095209;28;20083;-82
2022/06/06 02:02:43;;;;;;;6.93;4.80;;;;;;;;;;5094927;28;20097;-82
2022/06/06 02:05:11;;;;;;;6.85;4.38;;;;;;;;;;5077978;28;20040;-82
2022/06/06 02:07:37;;;;;;;6.55;4.55;;;;;;;;;;5095057;28;20058;-82
2022/06/06 02:10:04;;;;;;;6.88;4.65;;;;;;;;;;5095030;28;20043;-82
2022/06/06 02:12:30;;;;;;;7.03;4.47;;;;;;;;;;5095825;28;20064;-82
2022/06/06 02:14:56;;;;;;;8.18;4.38;;;;;;;;;;5094676;28;20395;-81
2022/06/06 02:17:22;;;;;;;7.38;4.35;;;;;;;;;;5096022;28;20040;-81
2022/06/06 02:19:48;;;;;;;5.88;3.83;;;;;;;;;;5096211;28;20050;-81
2022/06/06 02:22:14;;;;;;;7.60;3.95;;;;;;;;;;5094853;28;20109;-81
2022/06/06 02:24:40;;;;;;;7.10;4.40;;;;;;;;;;5094459;28;20071;-81
2022/06/06 02:27:06;;;;;;;6.80;3.92;;;;;;;;;;5094505;28;20040;-81
2022/06/06 02:29:32;;;;;;;6.60;4.43;;;;;;;;;;5095527;28;20553;-82
2022/06/06 02:31:58;;;;;;;6.78;4.10;;;;;;;;;;5095749;28;20047;-81
2022/06/06 02:34:25;;;;;;;6.30;4.20;;;;;;;;;;5094236;28;20040;-82
2022/06/06 02:36:51;;;;;;;7.45;3.75;;;;;;;;;;5095729;28;20123;-82
2022/06/06 02:39:17;;;;;;;7.38;4.40;;;;;;;;;;5094132;28;20047;-82
2022/06/06 02:41:44;;;;;;;6.00;3.83;;;;;;;;;;5094452;28;20044;-81
2022/06/06 02:44:10;;;;;;;6.82;4.13;;;;;;;;;;5093968;28;20052;-81
2022/06/06 02:46:36;;;;;;;6.63;4.13;;;;;;;;;;5094151;28;20040;-81
2022/06/06 02:49:02;;;;;;;6.93;3.80;;;;;;;;;;5094218;28;20070;-82
2022/06/06 02:51:28;;;;;;;7.18;4.25;;;;;;;;;;5094089;28;20061;-82
2022/06/06 02:53:54;;;;;;;6.43;3.42;;;;;;;;;;5094091;28;20043;-82
2022/06/06 02:56:20;;;;;;;7.95;3.65;;;;;;;;;;5093915;28;20047;-82
2022/06/06 02:58:46;;;;;;;5.80;3.53;;;;;;;;;;5093716;28;20043;-81
2022/06/06 03:01:14;;;;;;;6.40;3.72;;;;;;;;;;5094146;28;20040;-82
2022/06/06 03:03:41;;;;;;;6.15;3.92;;;;;;;;;;5093758;28;20533;-82
2022/06/06 03:06:09;;;;;;;7.63;4.10;;;;;;;;;;5076254;28;20127;-82
2022/06/06 03:08:54;;;;;;;10.25;4.10;;;;;;;;;;5076862;28;20067;-81
2022/06/06 03:11:39;;;;;;;7.85;4.55;;;;;;;;;;5093908;28;20040;-82
2022/06/06 03:14:28;;;;;;;6.28;4.13;;;;;;;;;;5093727;28;20039;-81
2022/06/06 03:22:54;;;;;;;;;;;;;;;;;;5095317;28;20492;-82
2022/06/06 03:25:19;;;;;;;;;;;;;;;;;;5094018;28;19974;-82
2022/06/06 03:27:54;;;;;;;7.57;4.57;;;;;;;;;;5093304;28;19931;-82
2022/06/06 03:30:23;;;;;;;7.78;4.60;;;;;;;;;;5093535;28;20365;-82
2022/06/06 03:32:59;;;;;;;8.02;4.53;;;;;;;;;;5093235;28;20048;-82
2022/06/06 03:35:39;;;;;;;6.82;4.60;;;;;;;;;;5093179;28;20036;-82
2022/06/06 03:38:13;;;;;;;7.72;4.72;;;;;;;;;;5093036;28;20036;-81
2022/06/06 03:40:58;;;;;;;5.95;3.95;;;;;;;;;;5076323;28;20032;-82
2022/06/06 03:43:43;;;;;;;8.63;4.43;;;;;;;;;;5092569;28;20060;-82
2022/06/06 03:46:15;;;;;;;5.82;3.90;;;;;;;;;;5093014;28;20144;-82
2022/06/06 03:48:47;;;;;;;9.00;4.40;;;;;;;;;;5093044;28;20035;-81
2022/06/06 03:51:14;;;;;;;6.07;3.90;;;;;;;;;;5076094;28;20044;-82
2022/06/06 03:54:03;;;;;;;5.28;3.70;;;;;;;;;;5092648;28;20042;-82
2022/06/06 03:56:29;;;;;;;6.85;3.35;;;;;;;;;;5094016;28;20040;-82
2022/06/06 03:58:56;;;;;;;6.50;3.58;;;;;;;;;;5092647;28;20119;-82
2022/06/06 04:01:24;;;;;;;5.05;3.20;;;;;;;;;;5092752;28;20048;-81
2022/06/06 04:03:50;;;;;;;4.80;3.20;;;;;;;;;;5092480;28;20044;-82
2022/06/06 04:06:17;;;;;;;5.10;3.00;;;;;;;;;;5092488;28;20497;-82
2022/06/06 04:08:43;;;;;;;8.00;2.72;;;;;;;;;;5092398;28;20036;-82
2022/06/06 04:11:39;;;;;;;4.07;2.35;;;;;;;;;;5075825;28;20040;-82
2022/06/06 04:14:08;;;;;;;5.22;2.78;;;;;;;;;;5075908;28;20067;-81
2022/06/06 04:17:00;;;;;;;4.78;2.70;;;;;;;;;;5092419;28;20048;-81
2022/06/06 04:19:39;;;;;;;6.00;2.72;;;;;;;;;;5061980;28;20044;-82
2022/06/06 04:22:27;;;;;;;7.43;3.83;;;;;;;;;;5092768;28;20071;-81
2022/06/06 04:25:15;;;;;;;7.30;3.88;;;;;;;;;;5092188;28;20479;-81
2022/06/06 04:27:47;;;;;;;7.75;4.72;;;;;;;;;;5092592;28;20051;-82
2022/06/06 04:30:16;;;;;;;8.35;5.10;;;;;;;;;;5092129;28;20039;-81
2022/06/06 04:32:48;;;;;;;8.60;5.05;;;;;;;;;;5092451;28;20039;-82
2022/06/06 04:35:34;;;;;;;9.18;5.20;;;;;;;;;;5091867;28;20044;-82
2022/06/06 04:38:00;;;;;;;8.57;4.95;;;;;;;;;;5092129;28;20043;-82
2022/06/06 04:40:37;;;;;;;9.70;5.90;;;;;;;;;;5091863;28;20119;-82
2022/06/06 04:43:08;;;;;;;10.18;5.75;;;;;;;;;;5091817;28;20052;-82
2022/06/06 04:45:47;;;;;;;8.82;5.10;;;;;;;;;;5091684;28;20039;-82
2022/06/06 04:48:15;;;;;;;8.77;4.72;;;;;;;;;;5092255;28;20476;-82
2022/06/06 04:50:42;;;;;;;7.43;4.25;;;;;;;;;;5091751;28;20040;-82
2022/06/06 04:53:10;;;;;;;7.63;4.38;;;;;;;;;;5091851;28;20051;-81
2022/06/06 04:55:40;;;;;;;9.68;5.65;;;;;;;;;;5091738;28;20105;-82
2022/06/06 04:58:07;;;;;;;8.40;4.97;;;;;;;;;;5091952;28;20047;-82
2022/06/06 05:00:36;;;;;;;9.57;5.47;;;;;;;;;;5091574;28;20036;-82
2022/06/06 05:03:03;;;;;;;10.07;5.80;;;;;;;;;;5091715;28;20073;-82
2022/06/06 05:05:44;;;;;;;11.02;5.68;;;;;;;;;;5091376;28;20052;-82
2022/06/06 05:08:16;;;;;;;9.10;4.78;;;;;;;;;;5091719;28;20046;-82
2022/06/06 05:10:51;;;;;;;8.23;4.97;;;;;;;;;;5091432;28;20032;-81
2022/06/06 05:13:23;;;;;;;10.30;5.60;;;;;;;;;;5074874;28;20051;-81
2022/06/06 05:16:27;;;;;;;9.68;5.63;;;;;;;;;;5075069;28;20047;-81
2022/06/06 05:19:02;;;;;;;13.10;7.40;;;;;;;;;;5030618;28;20176;-82
2022/06/06 05:21:46;;;;;;;10.25;6.75;;;;;;;;;;5014188;28;20041;-81
2022/06/06 05:24:22;;;;;;;13.63;7.50;;;;;;;;;;5063414;28;20056;-81
2022/06/06 05:26:59;;;;;;;14.23;7.47;;;;;;;;;;5091386;28;20044;-82
2022/06/06 05:29:37;;;;;;;11.77;8.23;;;;;;;;;;5091553;28;20088;-82
2022/06/06 05:32:16;;;;;;;15.73;9.60;;;;;;;;;;5095914;28;20048;-81
2022/06/06 05:35:03;;;;;;;16.67;10.23;;;;;;;;;;5095490;28;20503;-82
2022/06/06 05:37:48;;;;;;;16.85;9.70;;;;;;;;;;5095409;28;20048;-82
2022/06/06 05:40:20;;;;;;;15.45;9.95;;;;;;;;;;5078425;28;20495;-81
2022/06/06 05:42:57;;;;;;;17.05;11.50;;;;;;;;;;5096493;28;20044;-81
2022/06/06 05:45:38;;;;;;;16.10;10.50;;;;;;;;;;5096350;28;20123;-81
2022/06/06 05:48:04;;;;;;;15.88;10.57;;;;;;;;;;5095412;28;20576;-81
2022/06/06 05:50:42;;;;;;;14.20;10.30;;;;;;;;;;5095219;28;20040;-81
2022/06/06 05:53:20;;;;;;;14.75;10.27;;;;;;;;;;5095307;28;20064;-81
2022/06/06 05:55:46;;;;;;;18.33;10.77;;;;;;;;;;5095191;28;20090;-81
2022/06/06 05:58:31;;;;;;;16.73;11.38;;;;;;;;;;5096716;28;20040;-81
2022/06/06 06:01:12;;;;;;;17.50;11.73;;;;;;;;;;5078010;28;20040;-81
2022/06/06 06:03:56;;;;;;;19.00;12.02;;;;;;;;;;5096600;28;20050;-81
2022/06/06 06:06:28;;;;;;;17.48;10.95;;;;;;;;;;5094788;28;20569;-81
2022/06/06 06:09:11;;;;;;;18.88;12.10;;;;;;;;;;5096537;28;20032;-81
2022/06/06 06:11:46;;;;;;;17.27;11.85;;;;;;;;;;5095989;28;20079;-82
2022/06/06 06:14:15;;;;;;;17.90;12.73;;;;;;;;;;5094952;28;20036;-81
2022/06/06 06:16:45;;;;;;;23.10;15.73;;;;;;;;;;5094915;28;20483;-81
2022/06/06 06:19:17;;;;;;;24.17;15.90;;;;;;;;;;5094796;28;20119;-81
2022/06/06 06:21:45;;;;;;;19.27;15.50;;;;;;;;;;5095866;28;20051;-82
2022/06/06 06:24:19;;;;;;;24.27;16.60;;;;;;;;;;5095007;28;20081;-82
2022/06/06 06:26:46;;;;;;;25.58;16.55;;;;;;;;;;5095807;28;20044;-82
2022/06/06 06:29:12;;;;;;;21.27;14.75;;;;;;;;;;5094669;28;20035;-85
2022/06/06 06:31:57;;;;;;;21.75;14.63;;;;;;;;;;5094315;28;20672;-81
2022/06/06 06:34:34;;;;;;;18.85;12.85;;;;;;;;;;5094437;28;20395;-82
2022/06/06 06:37:06;;;;;;;18.58;13.10;;;;;;;;;;5095440;28;20044;-82
2022/06/06 06:39:35;;;;;;;16.85;11.18;;;;;;;;;;5094363;28;20043;-82
2022/06/06 06:42:07;;;;;;;16.27;10.93;;;;;;;;;;5094324;28;20086;-82
2022/06/06 06:44:34;;;;;;;18.80;10.63;;;;;;;;;;5094149;28;20056;-85
2022/06/06 06:47:27;;;;;;;19.80;11.25;;;;;;;;;;5093968;28;20145;-84
2022/06/06 06:49:56;;;;;;;16.50;10.20;;;;;;;;;;5089654;28;20048;-83
2022/06/06 06:52:40;;;;;;;15.95;10.13;;;;;;;;;;5077274;28;20036;-83
2022/06/06 06:55:09;;;;;;;16.20;9.82;;;;;;;;;;5094022;28;20050;-82
2022/06/06 06:57:44;;;;;;;13.68;9.65;;;;;;;;;;5093958;28;20044;-82
2022/06/06 07:00:13;;;;;;;13.68;9.02;;;;;;;;;;5095287;28;20044;-81
2022/06/06 07:08:39;;;;;;;14.52;8.85;;;;;;;;;;5093846;28;20479;-81
2022/06/06 07:11:05;;;;;;;13.38;8.95;;;;;;;;;;5072847;28;20044;-82
2022/06/06 07:13:31;;;;;;;14.15;8.52;;;;;;;;;;5072994;28;20057;-81
2022/06/06 07:16:15;;;;;;;14.70;8.90;;;;;;;;;;5072820;28;20040;-82
2022/06/06 07:18:42;;;;;;;14.35;9.30;;;;;;;;;;5072860;28;20044;-81
2022/06/06 07:21:08;;;;;;;15.95;8.43;;;;;;;;;;5072632;28;20177;-81
2022/06/06 07:23:36;;;;;;;13.48;8.27;;;;;;;;;;5072890;28;20051;-82
2022/06/06 07:26:03;;;;;;;12.18;7.40;;;;;;;;;;5072441;28;20119;-81
2022/06/06 07:28:29;;;;;;;13.88;7.55;;;;;;;;;;5072998;28;20553;-81
2022/06/06 07:31:04;;;;;;;10.90;6.40;;;;;;;;;;5072605;28;20036;-82
2022/06/06 07:33:48;;;;;;;10.55;5.97;;;;;;;;;;5074213;28;20041;-81
2022/06/06 07:36:29;;;;;;;10.00;5.50;;;;;;;;;;5086185;28;20127;-82
2022/06/06 07:39:07;;;;;;;8.43;4.75;;;;;;;;;;5092795;28;20465;-82
2022/06/06 07:41:42;;;;;;;10.40;5.70;;;;;;;;;;5092525;28;20535;-81
2022/06/06 07:44:29;;;;;;;9.57;5.32;;;;;;;;;;5092376;28;20127;-82
2022/06/06 07:47:13;;;;;;;8.30;4.07;;;;;;;;;;5093938;28;20056;-81
2022/06/06 07:49:42;;;;;;;9.25;3.58;;;;;;;;;;5093214;28;20047;-85
2022/06/06 07:52:21;;;;;;;7.38;2.70;;;;;;;;;;5092584;28;20067;-81
2022/06/06 07:54:51;;;;;;;6.68;2.58;;;;;;;;;;5092861;28;20044;-81
2022/06/06 07:57:25;;;;;;;5.72;2.90;;;;;;;;;;5092586;28;20463;-81
2022/06/06 08:00:08;;;;;;;8.45;3.67;;;;;;;;;;5093122;28;20055;-81
2022/06/06 08:02:37;;;;;;;5.95;3.17;;;;;;;;;;5092681;28;20089;-81
2022/06/06 08:05:22;;;;;;;7.70;4.00;;;;;;;;;;5092573;28;20491;-81
2022/06/06 08:07:55;;;;;;;9.13;3.58;;;;;;;;;;5092754;28;20404;-81
2022/06/06 08:10:38;;;;;;;7.28;3.58;;;;;;;;;;5092673;28;20114;-82
2022/06/06 08:13:10;;;;;;;7.35;3.50;;;;;;;;;;5093637;28;20295;-81
2022/06/06 08:15:36;;;;;;;7.93;3.72;;;;;;;;;;5092727;28;20101;-81
2022/06/06 08:18:22;;;;;;;12.25;3.50;;;;;;;;;;5092348;28;20044;-81
2022/06/06 08:20:48;;;;;;;7.85;3.42;;;;;;;;;;5092586;28;20066;-82
2022/06/06 08:23:15;;;;;;;8.50;3.70;;;;;;;;;;5092387;28;20119;-82
2022/06/06 08:25:42;;;;;;;8.98;4.25;;;;;;;;;;5092300;28;20036;-82
2022/06/06 08:28:10;;;;;;;8.18;3.95;;;;;;;;;;5092058;28;20071;-82
2022/06/06 08:30:37;;;;;;;6.63;3.95;;;;;;;;;;5092259;28;20089;-82
2022/06/06 08:33:03;;;;;;;8.35;4.45;;;;;;;;;;5092284;28;20533;-83
2022/06/06 08:35:36;;;;;;;8.23;3.92;;;;;;;;;;5088852;28;20040;-82
2022/06/06 08:38:08;;;;;;;8.55;4.32;;;;;;;;;;5091927;28;20082;-82
2022/06/06 08:40:53;;;;;;;8.43;4.28;;;;;;;;;;5092258;28;20059;-82
2022/06/06 08:43:28;;;;;;;7.00;4.23;;;;;;;;;;5091664;28;20052;-82
2022/06/06 08:45:54;;;;;;;;;;;;;;;;;;5075799;28;20063;-86
2022/06/06 08:48:20;;;;;;;;;;;;;;;;;;5092185;28;19916;-83
2022/06/06 08:50:46;;;;;;;;;;;;;;;;;;5092604;28;19915;-82
2022/06/06 08:53:30;;;;;;;10.35;4.13;;;;;;;;;;5093143;28;19920;-82
2022/06/06 08:56:15;;;;;;;8.02;3.50;;;;;;;;;;5092034;28;20056;-84
2022/06/06 08:59:05;;;;;;;8.68;3.65;;;;;;;;;;5091803;28;20036;-84
2022/06/06 09:01:41;;;;;;;7.65;3.20;;;;;;;;;;5091594;28;20463;-84
2022/06/06 09:04:10;;;;;;;6.97;3.10;;;;;;;;;;5091350;28;20126;-82
2022/06/06 09:06:56;;;;;;;7.43;3.20;;;;;;;;;;5091211;28;20090;-83
2022/06/06 09:09:37;;;;;;;8.30;3.10;;;;;;;;;;5091862;28;20044;-82
2022/06/06 09:12:22;;;;;;;7.43;3.80;;;;;;;;;;5091628;28;20043;-83
2022/06/06 09:15:06;;;;;;;4.72;2.55;;;;;;;;;;5092896;28;20075;-83
2022/06/06 09:17:51;;;;;;;6.35;3.08;;;;;;;;;;5092555;28;20062;-82
2022/06/06 09:20:29;;;;;;;5.63;2.70;;;;;;;;;;5091711;28;20047;-82
2022/06/06 09:23:01;;;;;;;5.55;2.38;;;;;;;;;;5092819;28;20048;-83
2022/06/06 09:25:46;;;;;;;5.97;1.95;;;;;;;;;;5092550;28;20044;-82
2022/06/06 09:28:21;;;;;;;9.17;2.60;;;;;;;;;;5092766;28;20036;-82
2022/06/06 09:31:06;;;;;;;4.90;1.90;;;;;;;;;;5091439;28;20353;-82
2022/06/06 09:33:43;;;;;;;6.18;1.50;;;;;;;;;;5091098;28;20070;-82
2022/06/06 09:36:23;;;;;;;4.68;1.27;;;;;;;;;;5091337;28;20047;-83
2022/06/06 09:39:05;;;;;;;5.72;1.35;;;;;;;;;;5091083;28;20082;-82
2022/06/06 09:41:38;;;;;;;6.10;1.55;;;;;;;;;;5091565;28;20517;-82
2022/06/06 09:44:13;;;;;;;6.03;1.60;;;;;;;;;;5091231;28;20056;-82
2022/06/06 09:47:00;;;;;;;5.07;1.67;;;;;;;;;;5090977;28;20044;-83
2022/06/06 09:49:35;;;;;;;8.55;2.08;;;;;;;;;;5092628;28;20116;-82
2022/06/06 09:52:19;;;;;;;6.40;1.85;;;;;;;;;;5091183;28;20036;-82
2022/06/06 10:00:45;;;;;;;7.43;2.00;;;;;;;;;;5091428;28;20110;-82
2022/06/06 10:03:30;;;;;;;7.05;1.50;;;;;;;;;;5090885;28;20047;-81
2022/06/06 10:06:25;;;;;;;8.93;1.70;;;;;;;;;;5074194;28;20101;-83
2022/06/06 10:09:01;;;;;;;6.50;1.57;;;;;;;;;;5074161;28;20044;-82
2022/06/06 10:11:46;;;;;;;6.15;1.90;;;;;;;;;;5091124;28;20032;-82
2022/06/06 10:14:28;;;;;;;4.72;2.05;;;;;;;;;;5091074;28;20459;-81
2022/06/06 10:17:07;;;;;;;5.28;1.73;;;;;;;;;;5093497;28;20044;-81
2022/06/06 10:19:33;;;;;;;5.13;1.50;;;;;;;;;;5094723;28;20043;-82
2022/06/06 10:22:02;;;;;;;6.60;1.45;;;;;;;;;;5077733;28;20040;-83
2022/06/06 10:24:53;;;;;;;4.70;1.98;;;;;;;;;;5094576;28;20498;-82
2022/06/06 10:27:34;;;;;;;5.10;1.90;;;;;;;;;;5094432;28;20040;-82
2022/06/06 10:30:30;;;;;;;6.50;1.70;;;;;;;;;;5094651;28;20040;-82
2022/06/06 10:33:14;;;;;;;3.30;1.38;;;;;;;;;;5008088;28;20045;-82
2022/06/06 10:35:44;;;;;;;5.55;1.52;;;;;;;;;;5077524;28;20036;-82
2022/06/06 10:38:09;;;;;;;6.50;1.85;;;;;;;;;;5094426;28;20541;-82
2022/06/06 10:40:54;;;;;;;7.30;1.80;;;;;;;;;;5094607;28;20032;-83
2022/06/06 10:43:30;;;;;;;3.92;1.50;;;;;;;;;;5093901;28;20056;-83
2022/06/06 10:46:01;;;;;;;6.47;1.30;;;;;;;;;;5095447;28;20181;-84
2022/06/06 10:48:36;;;;;;;4.43;0.90;;;;;;;;;;5093904;28;20046;-83
2022/06/06 10:53:47;;;;;;;3.50;1.10;;;;;;;;;;5093902;28;19915;-83
2022/06/06 10:56:22;;;;;;;3.97;1.40;;;;;;;;;;5093879;28;20437;-84
2022/06/06 10:58:48;;;;;;;6.07;1.42;;;;;;;;;;5093885;28;20036;-84
2022/06/06 11:01:34;;;;;;;8.00;2.00;;;;;;;;;;5094142;28;20097;-83
2022/06/06 11:04:06;;;;;;;6.10;1.90;;;;;;;;;;5063948;28;20109;-86
2022/06/06 11:06:51;;;;;;;5.20;1.77;;;;;;;;;;5095113;28;20487;-82
2022/06/06 11:09:21;;;;;;;5.90;2.03;;;;;;;;;;5093631;28;20399;-83
2022/06/06 11:12:13;;;;;;;6.40;2.63;;;;;;;;;;5093707;28;20040;-83
2022/06/06 11:14:40;;;;;;;5.93;2.50;;;;;;;;;;5089696;28;20071;-83
2022/06/06 11:17:25;;;;;;;6.22;2.22;;;;;;;;;;5093683;28;20089;-82
2022/06/06 11:19:51;;;;;;;7.75;2.10;;;;;;;;;;5094960;28;20210;-83
2022/06/06 11:22:27;;;;;;;5.78;2.03;;;;;;;;;;5093856;28;20048;-83
2022/06/06 11:24:53;;;;;;;;;;;;;;;;;;5093939;28;20055;-82
2022/06/06 11:27:30;;;;;;;4.13;1.40;;;;;;;;;;5092641;28;19924;-82
2022/06/06 11:30:08;;;;;;;4.55;1.45;;;;;;;;;;5094491;28;20540;-81
2022/06/06 11:32:40;;;;;;;4.82;1.50;;;;;;;;;;5094796;28;20089;-82
2022/06/06 11:35:18;;;;;;;3.83;1.40;;;;;;;;;;5094455;28;20115;-82
2022/06/06 11:37:47;;;;;;;4.82;1.40;;;;;;;;;;5093353;28;20051;-82
2022/06/06 11:40:28;;;;;;;4.28;1.45;;;;;;;;;;5076355;28;20481;-82
2022/06/06 11:43:03;;;;;;;4.15;1.50;;;;;;;;;;5075993;28;20044;-82
2022/06/06 11:45:29;;;;;;;5.07;1.75;;;;;;;;;;5093160;28;20052;-83
2022/06/06 11:48:01;;;;;;;4.60;1.60;;;;;;;;;;5092925;28;20047;-83
2022/06/06 11:50:42;;;;;;;5.82;1.65;;;;;;;;;;5093109;28;20036;-82
2022/06/06 11:53:08;;;;;;;6.60;1.70;;;;;;;;;;5094197;28;20028;-82
2022/06/06 11:55:59;;;;;;;4.40;1.50;;;;;;;;;;5094511;28;20081;-84
2022/06/06 11:58:43;;;;;;;4.55;2.05;;;;;;;;;;5076462;28;20043;-90
2022/06/06 12:01:28;;;;;;;5.10;1.60;;;;;;;;;;5093043;28;20038;-83
2022/06/06 12:03:57;;;;;;;3.72;1.48;;;;;;;;;;5088150;28;20043;-84
2022/06/06 12:06:35;;;;;;;5.95;1.40;;;;;;;;;;5092551;28;20118;-83
2022/06/06 12:09:19;;;;;;;5.10;1.40;;;;;;;;;;5075733;28;20483;-83
2022/06/06 12:11:46;;;;;;;3.55;1.02;;;;;;;;;;5092672;28;20048;-83
2022/06/06 12:14:16;;;;;;;4.50;1.17;;;;;;;;;;5092603;28;20447;-82
2022/06/06 12:16:54;;;;;;;5.15;1.58;;;;;;;;;;5093824;28;20048;-83
2022/06/06 12:19:40;;;;;;;6.13;1.40;;;;;;;;;;5092434;28;20048;-82
2022/06/06 12:22:18;;;;;;;3.30;1.10;;;;;;;;;;5092476;28;20044;-82
2022/06/06 12:25:02;;;;;;;4.72;1.80;;;;;;;;;;5092131;28;20119;-82
2022/06/06 12:27:47;;;;;;;4.10;1.25;;;;;;;;;;5092188;28;20044;-83
2022/06/06 12:30:27;;;;;;;2.87;1.00;;;;;;;;;;5093554;28;20119;-83
2022/06/06 12:33:03;;;;;;;3.30;0.70;;;;;;;;;;5092249;28;20040;-82
2022/06/06 12:35:47;;;;;;;3.97;1.00;;;;;;;;;;5092253;28;20438;-82
2022/06/06 12:38:32;;;;;;;4.35;0.95;;;;;;;;;;5075656;28;20535;-82
2022/06/06 12:41:07;;;;;;;3.75;0.93;;;;;;;;;;5091739;28;20039;-82
2022/06/06 12:43:39;;;;;;;2.95;0.68;;;;;;;;;;5090633;28;20052;-82
2022/06/06 12:46:05;;;;;;;3.42;0.77;;;;;;;;;;5091849;28;20052;-82
2022/06/06 12:48:36;;;;;;;2.08;0.80;;;;;;;;;;5091828;28;20032;-83
2022/06/06 12:51:02;;;;;;;2.65;0.70;;;;;;;;;;5091895;28;20044;-82
2022/06/06 12:53:46;;;;;;;2.65;0.65;;;;;;;;;;5092148;28;20051;-83
2022/06/06 12:56:17;;;;;;;2.33;0.57;;;;;;;;;;5091796;28;20455;-82
2022/06/06 12:58:54;;;;;;;4.30;0.80;;;;;;;;;;5091622;28;20395;-82
2022/06/06 13:01:38;;;;;;;3.90;0.85;;;;;;;;;;5092111;28;20040;-82
2022/06/06 13:04:16;;;;;;;6.00;1.10;;;;;;;;;;5092845;28;20416;-82
2022/06/06 13:06:45;;;;;;;2.15;0.68;;;;;;;;;;5091669;28;20246;-83
2022/06/06 13:09:14;;;;;;;4.72;1.10;;;;;;;;;;5091712;28;20040;-83
2022/06/06 13:11:43;;;;;;;2.85;0.90;;;;;;;;;;5073824;28;20040;-83
2022/06/06 13:14:09;;;;;;;5.03;1.30;;;;;;;;;;5092742;28;20074;-83
2022/06/06 13:16:50;;;;;;;3.10;1.08;;;;;;;;;;5091417;28;20083;-82
2022/06/06 13:19:16;;;;;;;8.02;1.52;;;;;;;;;;5074487;28;20040;-82
2022/06/06 13:21:53;;;;;;;4.57;1.48;;;;;;;;;;5092914;28;20172;-82
2022/06/06 13:24:38;;;;;;;6.93;2.42;;;;;;;;;;5092898;28;20048;-83
2022/06/06 13:27:18;;;;;;;4.15;1.50;;;;;;;;;;5091449;28;20076;-86
2022/06/06 13:29:47;;;;;;;7.25;1.50;;;;;;;;;;5091421;28;20074;-83
2022/06/06 13:32:24;;;;;;;4.93;1.70;;;;;;;;;;5074835;28;20036;-82
2022/06/06 13:34:50;;;;;;;3.58;1.42;;;;;;;;;;5091336;28;20039;-82
2022/06/06 13:37:25;;;;;;;4.70;1.90;;;;;;;;;;5091710;28;20053;-83
2022/06/06 13:40:12;;;;;;;2.78;1.10;;;;;;;;;;5091312;28;20196;-83
2022/06/06 13:42:38;;;;;;;4.68;1.30;;;;;;;;;;5074524;28;20047;-82
2022/06/06 13:45:10;;;;;;;4.57;1.30;;;;;;;;;;5090986;28;20056;-82
2022/06/06 13:47:39;;;;;;;4.85;1.00;;;;;;;;;;5091288;28;20051;-83
2022/06/06 13:50:14;;;;;;;4.50;1.05;;;;;;;;;;5091059;28;20036;-83
2022/06/06 13:52:59;;;;;;;3.08;1.17;;;;;;;;;;5095300;28;20065;-82
2022/06/06 13:55:26;;;;;;;3.50;1.05;;;;;;;;;;5094123;28;20039;-83
2022/06/06 13:58:01;;;;;;;1.83;0.90;;;;;;;;;;5096625;28;20052;-83
2022/06/06 14:00:34;;;;;;;4.22;1.20;;;;;;;;;;5094035;28;20498;-83
2022/06/06 14:03:13;;;;;;;6.13;1.52;;;;;;;;;;5095236;28;20040;-84
2022/06/06 14:05:46;;;;;;;4.55;1.60;;;;;;;;;;5094724;28;20048;-83
2022/06/06 14:08:13;;;;;;;6.47;1.48;;;;;;;;;;5095104;28;20040;-84
2022/06/06 14:10:56;;;;;;;3.83;1.70;;;;;;;;;;5094692;28;20074;-84
2022/06/06 14:13:41;;;;;;;5.07;1.70;;;;;;;;;;5078247;28;20036;-85
2022/06/06 14:16:27;;;;;;;4.70;2.30;;;;;;;;;;5094559;28;20044;-85
2022/06/06 14:18:57;;;;;;;5.00;1.90;;;;;;;;;;5077929;28;20054;-84
2022/06/06 14:21:31;;;;;;;3.78;2.33;;;;;;;;;;5077814;28;20040;-84
2022/06/06 14:24:07;;;;;;;6.53;2.50;;;;;;;;;;5094694;28;20040;-84
2022/06/06 14:26:33;;;;;;;5.40;2.40;;;;;;;;;;5094179;28;20060;-83
2022/06/06 14:29:08;;;;;;;5.80;2.65;;;;;;;;;;5094854;28;20043;-84
2022/06/06 14:31:36;;;;;;;4.15;1.95;;;;;;;;;;5093355;28;20032;-83
2022/06/06 14:34:05;;;;;;;5.68;2.10;;;;;;;;;;5094446;28;20032;-83
2022/06/06 14:36:31;;;;;;;5.47;2.45;;;;;;;;;;5093295;28;20617;-83
2022/06/06 14:38:58;;;;;;;6.43;2.40;;;;;;;;;;5095832;28;20044;-83
2022/06/06 14:41:28;;;;;;;5.93;2.47;;;;;;;;;;5062787;28;20082;-83
2022/06/06 14:43:57;;;;;;;4.80;2.17;;;;;;;;;;5073913;28;20064;-84
2022/06/06 14:46:23;;;;;;;7.03;3.22;;;;;;;;;;5073761;28;20040;-84
2022/06/06 14:48:53;;;;;;;7.25;2.92;;;;;;;;;;5073991;28;20395;-84
2022/06/06 14:51:20;;;;;;;6.15;3.20;;;;;;;;;;5073734;28;20049;-83
2022/06/06 14:53:46;;;;;;;5.95;2.83;;;;;;;;;;5075118;28;20044;-83
2022/06/06 14:56:34;;;;;;;7.32;3.03;;;;;;;;;;5072749;28;20040;-83
2022/06/06 14:59:03;;;;;;;7.53;3.50;;;;;;;;;;5073769;28;20041;-83
2022/06/06 15:01:29;;;;;;;7.35;3.42;;;;;;;;;;5072115;28;20048;-82
2022/06/06 15:03:57;;;;;;;7.65;3.45;;;;;;;;;;5072526;28;20068;-85
2022/06/06 15:06:23;;;;;;;7.68;3.67;;;;;;;;;;5056074;28;20125;-84
2022/06/06 15:09:01;;;;;;;7.20;4.03;;;;;;;;;;5073732;28;20052;-84
2022/06/06 15:11:29;;;;;;;7.20;3.53;;;;;;;;;;5073214;28;20051;-84
2022/06/06 15:13:57;;;;;;;10.02;4.60;;;;;;;;;;5056799;28;20044;-84
2022/06/06 15:16:26;;;;;;;8.15;4.13;;;;;;;;;;5074192;28;20072;-84
2022/06/06 15:18:54;;;;;;;7.20;4.00;;;;;;;;;;5073407;28;20476;-84
2022/06/06 15:21:21;;;;;;;6.63;3.78;;;;;;;;;;5073543;28;20043;-82
2022/06/06 15:23:47;;;;;;;8.25;4.30;;;;;;;;;;5056600;28;20048;-84
2022/06/06 15:26:22;;;;;;;8.13;4.50;;;;;;;;;;5056289;28;20047;-84
2022/06/06 15:28:51;;;;;;;13.07;4.90;;;;;;;;;;5073202;28;20446;-83
2022/06/06 15:31:23;;;;;;;8.25;3.72;;;;;;;;;;5073162;28;20438;-83
2022/06/06 15:33:49;;;;;;;4.60;1.75;;;;;;;;;;5073186;28;20052;-85
2022/06/06 15:36:19;;;;;;;4.50;1.50;;;;;;;;;;5056154;28;20048;-86
2022/06/06 15:39:13;;;;;;;3.65;1.52;;;;;;;;;;5073108;28;20052;-83
2022/06/06 15:41:40;;;;;;;4.30;1.55;;;;;;;;;;5072774;28;20127;-84